createdAt,value
2019-05-20T00:00:27.549Z,22.90
2019-05-20T00:03:04.104Z,22.90
2019-05-20T00:05:40.027Z,22.80
2019-05-20T00:08:15.644Z,22.80
2019-05-20T00:10:51.558Z,22.90
2019-05-20T00:13:28.589Z,23.00
2019-05-20T00:16:04.346Z,23.10
2019-05-20T00:18:40.129Z,23.10
2019-05-20T00:21:15.907Z,23.00
2019-05-20T00:23:51.619Z,22.70
2019-05-20T00:26:28.268Z,22.60
2019-05-20T00:29:03.799Z,22.80
2019-05-20T00:31:40.991Z,22.50
2019-05-20T00:34:17.357Z,22.60
2019-05-20T00:36:54.341Z,22.70
2019-05-20T00:39:31.486Z,22.50
2019-05-20T00:42:09.106Z,22.70
2019-05-20T00:44:48.492Z,22.70
2019-05-20T00:47:32.094Z,22.80
2019-05-20T00:50:10.776Z,22.90
2019-05-20T00:52:45.927Z,22.90
2019-05-20T00:55:29.165Z,23.10
2019-05-20T00:58:05.621Z,23.00
2019-05-20T01:00:41.964Z,23.10
2019-05-20T01:03:19.430Z,23.10
2019-05-20T01:05:55.342Z,23.10
2019-05-20T01:08:31.864Z,23.00
2019-05-20T01:11:07.484Z,23.10
2019-05-20T01:13:43.272Z,23.00
2019-05-20T01:16:19.026Z,23.20
2019-05-20T01:18:55.409Z,23.30
2019-05-20T01:21:32.379Z,23.50
2019-05-20T01:24:08.396Z,23.60
2019-05-20T01:26:45.313Z,23.80
2019-05-20T01:29:22.864Z,23.70
2019-05-20T01:32:00.093Z,23.90
2019-05-20T01:34:37.871Z,24.00
2019-05-20T01:37:15.841Z,24.30
2019-05-20T01:39:52.246Z,24.30
2019-05-20T01:42:28.012Z,24.40
2019-05-20T01:45:06.176Z,24.50
2019-05-20T01:47:41.880Z,24.80
2019-05-20T01:50:19.988Z,24.70
2019-05-20T01:52:57.359Z,24.90
2019-05-20T01:55:33.491Z,25.10
2019-05-20T01:58:10.016Z,25.00
2019-05-20T02:00:45.927Z,25.10
2019-05-20T02:03:31.647Z,25.10
2019-05-20T02:06:02.126Z,25.10
2019-05-20T02:08:37.658Z,24.90
2019-05-20T02:11:15.473Z,24.90
2019-05-20T02:14:02.992Z,25.00
2019-05-20T02:16:40.507Z,25.20
2019-05-20T02:19:16.093Z,25.30
2019-05-20T02:21:54.627Z,25.30
2019-05-20T02:24:30.440Z,25.50
2019-05-20T02:27:06.253Z,25.40
2019-05-20T02:29:41.810Z,25.30
2019-05-20T02:32:21.066Z,25.20
2019-05-20T02:34:58.381Z,25.00
2019-05-20T02:37:35.768Z,25.20
2019-05-20T02:40:11.663Z,25.40
2019-05-20T02:42:47.621Z,25.50
2019-05-20T02:45:23.204Z,25.60
2019-05-20T02:48:01.022Z,25.70
2019-05-20T02:50:38.501Z,26.00
2019-05-20T02:53:14.858Z,26.20
2019-05-20T02:55:50.423Z,26.30
2019-05-20T02:58:30.409Z,26.10
2019-05-20T03:01:06.248Z,25.90
2019-05-20T03:03:42.132Z,25.80
2019-05-20T03:06:18.181Z,25.90
2019-05-20T03:08:55.395Z,25.70
2019-05-20T03:11:33.124Z,25.30
2019-05-20T03:14:11.838Z,25.40
2019-05-20T03:16:49.310Z,25.60
2019-05-20T03:19:26.375Z,25.40
2019-05-20T03:22:03.091Z,25.50
2019-05-20T03:24:40.158Z,25.50
2019-05-20T03:27:14.114Z,25.70
2019-05-20T03:29:51.263Z,25.80
2019-05-20T03:32:26.827Z,25.90
2019-05-20T03:35:04.747Z,25.80
2019-05-20T03:37:40.392Z,25.90
2019-05-20T03:40:17.795Z,26.30
2019-05-20T03:42:53.275Z,26.60
2019-05-20T03:45:29.255Z,26.60
2019-05-20T03:48:06.196Z,26.40
2019-05-20T03:50:42.117Z,26.00
2019-05-20T03:53:22.435Z,26.30
2019-05-20T03:55:59.873Z,26.50
2019-05-20T03:58:34.029Z,26.70
2019-05-20T04:01:12.032Z,26.80
2019-05-20T04:03:48.911Z,26.90
2019-05-20T04:06:29.650Z,26.80
2019-05-20T04:09:07.202Z,26.80
2019-05-20T04:11:43.241Z,27.00
2019-05-20T04:14:20.700Z,27.00
2019-05-20T04:16:58.735Z,27.10
2019-05-20T04:19:34.524Z,27.20
2019-05-20T04:22:14.697Z,27.10
2019-05-20T04:24:55.441Z,27.10
2019-05-20T04:27:34.057Z,27.50
2019-05-20T04:30:13.017Z,27.80
2019-05-20T04:32:51.006Z,27.40
2019-05-20T04:35:28.253Z,27.70
2019-05-20T04:38:03.889Z,27.80
2019-05-20T04:40:43.518Z,27.60
2019-05-20T04:43:19.613Z,27.40
2019-05-20T04:45:57.117Z,27.60
2019-05-20T04:48:35.200Z,27.60
2019-05-20T04:51:13.581Z,27.80
2019-05-20T04:53:51.709Z,28.00
2019-05-20T04:56:41.630Z,28.20
2019-05-20T04:59:26.456Z,28.10
2019-05-20T05:02:03.318Z,28.00
2019-05-20T05:04:39.939Z,28.00
2019-05-20T05:07:17.087Z,28.00
2019-05-20T05:09:58.276Z,27.80
2019-05-20T05:12:37.488Z,27.60
2019-05-20T05:15:17.423Z,27.80
2019-05-20T05:17:57.038Z,28.40
2019-05-20T05:20:37.281Z,28.50
2019-05-20T05:23:17.331Z,28.40
2019-05-20T05:25:56.035Z,28.40
2019-05-20T05:28:33.671Z,28.30
2019-05-20T05:31:15.537Z,28.10
2019-05-20T05:33:55.886Z,28.00
2019-05-20T05:36:37.083Z,28.20
2019-05-20T05:39:14.785Z,27.90
2019-05-20T05:41:53.555Z,27.70
2019-05-20T05:44:30.322Z,27.70
2019-05-20T05:47:08.196Z,27.50
2019-05-20T05:49:48.071Z,27.80
2019-05-20T05:52:28.852Z,27.70
2019-05-20T05:55:04.513Z,28.00
2019-05-20T05:57:42.313Z,28.50
2019-05-20T06:00:18.172Z,28.40
2019-05-20T06:02:55.435Z,28.20
2019-05-20T06:05:31.713Z,27.90
2019-05-20T06:08:08.057Z,28.20
2019-05-20T06:10:44.907Z,28.40
2019-05-20T06:13:24.988Z,28.60
2019-05-20T06:16:00.742Z,28.20
2019-05-20T06:18:36.764Z,28.20
2019-05-20T06:21:14.011Z,28.20
2019-05-20T06:23:55.039Z,28.10
2019-05-20T06:26:33.121Z,27.70
2019-05-20T06:29:12.852Z,27.60
2019-05-20T06:31:51.249Z,27.80
2019-05-20T06:34:43.027Z,27.90
2019-05-20T06:37:23.457Z,27.70
2019-05-20T06:40:03.697Z,27.60
2019-05-20T06:42:43.499Z,27.90
2019-05-20T06:45:20.491Z,28.50
2019-05-20T06:47:56.239Z,28.50
2019-05-20T06:50:36.868Z,28.70
2019-05-20T06:53:21.200Z,29.00
2019-05-20T06:55:57.514Z,29.30
2019-05-20T06:58:40.886Z,29.00
2019-05-20T07:01:24.441Z,28.90
2019-05-20T07:03:59.512Z,29.10
2019-05-20T07:06:45.695Z,29.00
2019-05-20T07:09:12.271Z,29.10
2019-05-20T07:11:55.427Z,28.70
2019-05-20T07:14:32.355Z,28.90
2019-05-20T07:17:08.394Z,29.10
2019-05-20T07:19:52.491Z,29.10
2019-05-20T07:22:29.346Z,28.90
2019-05-20T07:25:08.895Z,28.80
2019-05-20T07:27:46.420Z,28.60
2019-05-20T07:33:18.599Z,28.80
2019-05-20T07:35:55.533Z,28.70
2019-05-20T07:38:34.356Z,28.30
2019-05-20T07:41:11.207Z,28.60
2019-05-20T07:43:48.479Z,28.80
2019-05-20T07:46:24.065Z,28.90
2019-05-20T07:49:05.088Z,28.70
2019-05-20T07:51:44.220Z,28.30
2019-05-20T07:54:24.029Z,28.80
2019-05-20T07:57:04.990Z,28.80
2019-05-20T07:59:44.840Z,28.80
2019-05-20T08:02:29.895Z,28.50
2019-05-20T08:05:10.206Z,28.30
2019-05-20T08:07:52.284Z,28.20
2019-05-20T08:10:24.383Z,28.30
2019-05-20T08:13:01.716Z,28.30
2019-05-20T08:15:37.834Z,28.50
2019-05-20T08:18:14.983Z,28.50
2019-05-20T08:20:55.357Z,28.50
2019-05-20T08:23:30.980Z,28.50
2019-05-20T08:26:07.770Z,28.60
2019-05-20T08:28:46.570Z,28.30
2019-05-20T08:31:21.759Z,28.20
2019-05-20T08:34:01.069Z,28.00
2019-05-20T08:36:37.431Z,28.00
2019-05-20T08:39:13.490Z,27.90
2019-05-20T08:41:49.667Z,27.90
2019-05-20T08:44:27.344Z,28.10
2019-05-20T08:47:05.049Z,28.10
2019-05-20T08:49:43.218Z,27.70
2019-05-20T08:52:19.978Z,27.40
2019-05-20T08:54:55.635Z,27.70
2019-05-20T08:57:33.856Z,27.90
2019-05-20T09:00:11.394Z,28.00
2019-05-20T09:02:47.667Z,27.80
2019-05-20T09:05:28.099Z,27.50
2019-05-20T09:08:05.857Z,27.40
2019-05-20T09:10:43.452Z,27.30
2019-05-20T09:13:20.941Z,27.50
2019-05-20T09:15:58.035Z,27.60
2019-05-20T09:18:36.337Z,27.50
2019-05-20T09:21:14.161Z,27.50
2019-05-20T09:23:50.446Z,27.40
2019-05-20T09:26:26.262Z,27.30
2019-05-20T09:29:14.727Z,27.30
2019-05-20T09:31:50.498Z,27.40
2019-05-20T09:34:33.029Z,27.50
2019-05-20T09:37:08.755Z,27.40
2019-05-20T09:45:44.841Z,27.30
2019-05-20T09:48:25.601Z,27.30
2019-05-20T09:51:05.827Z,27.00
2019-05-20T09:53:43.025Z,26.80
2019-05-20T09:56:19.244Z,26.90
2019-05-20T09:58:54.869Z,26.70
2019-05-20T10:01:31.079Z,26.70
2019-05-20T10:04:10.923Z,26.70
2019-05-20T10:06:51.088Z,26.60
2019-05-20T10:09:28.320Z,26.50
2019-05-20T10:12:06.118Z,26.40
2019-05-20T10:14:45.735Z,26.20
2019-05-20T10:17:23.292Z,26.10
2019-05-20T10:20:00.637Z,26.20
2019-05-20T10:22:39.543Z,26.00
2019-05-20T10:25:18.432Z,26.00
2019-05-20T10:27:58.821Z,25.90
2019-05-20T10:30:34.355Z,26.00
2019-05-20T10:33:14.442Z,26.00
2019-05-20T10:35:51.518Z,25.90
2019-05-20T10:38:31.747Z,25.90
2019-05-20T10:41:06.712Z,25.80
2019-05-20T10:43:48.359Z,25.80
2019-05-20T10:46:25.814Z,25.70
2019-05-20T10:49:06.119Z,25.60
2019-05-20T10:51:41.821Z,25.50
2019-05-20T10:54:19.792Z,25.40
2019-05-20T10:56:59.663Z,25.40
2019-05-20T10:59:36.385Z,25.40
2019-05-20T11:02:14.194Z,25.30
2019-05-20T11:04:52.921Z,25.20
2019-05-20T11:07:30.043Z,25.10
2019-05-20T11:10:07.859Z,25.10
2019-05-20T11:12:45.429Z,25.00
2019-05-20T11:15:23.215Z,25.00
2019-05-20T11:17:58.899Z,24.90
2019-05-20T11:20:35.845Z,24.80
2019-05-20T11:23:18.056Z,24.80
2019-05-20T11:25:55.053Z,24.70
2019-05-20T11:28:35.165Z,24.60
2019-05-20T11:31:11.246Z,24.70
2019-05-20T11:33:46.805Z,24.70
2019-05-20T11:36:23.010Z,24.50
2019-05-20T11:38:58.609Z,24.40
2019-05-20T11:44:16.423Z,24.20
2019-05-20T11:46:54.922Z,24.30
2019-05-20T11:49:34.995Z,24.30
2019-05-20T11:52:12.929Z,24.10
2019-05-20T11:54:50.407Z,24.20
2019-05-20T11:57:35.547Z,24.10
2019-05-20T12:00:13.366Z,24.10
2019-05-20T12:02:49.475Z,24.00
2019-05-20T12:05:25.030Z,24.00
2019-05-20T12:08:01.053Z,24.00
2019-05-20T12:10:36.755Z,23.90
2019-05-20T12:13:13.933Z,23.90
2019-05-20T12:15:53.037Z,23.60
2019-05-20T12:18:29.752Z,23.40
2019-05-20T12:21:05.478Z,23.40
2019-05-20T12:23:42.709Z,23.50
2019-05-20T12:26:18.496Z,23.60
2019-05-20T12:28:56.517Z,23.50
2019-05-20T12:31:32.067Z,23.40
2019-05-20T12:34:08.074Z,23.60
2019-05-20T12:36:45.324Z,23.40
2019-05-20T12:39:21.692Z,23.40
2019-05-20T12:42:01.012Z,23.40
2019-05-20T12:44:41.852Z,23.20
2019-05-20T12:47:18.899Z,23.10
2019-05-20T12:49:55.704Z,23.10
2019-05-20T12:52:36.667Z,23.20
2019-05-20T12:55:14.456Z,23.10
2019-05-20T12:57:52.202Z,23.20
2019-05-20T13:00:31.073Z,23.30
2019-05-20T13:03:07.997Z,23.30
2019-05-20T13:05:44.778Z,23.10
2019-05-20T13:08:21.287Z,23.10
2019-05-20T13:11:00.227Z,23.00
2019-05-20T13:13:39.640Z,23.10
2019-05-20T13:16:15.454Z,23.00
2019-05-20T13:18:56.544Z,23.00
2019-05-20T13:21:37.831Z,22.90
2019-05-20T13:24:19.948Z,22.80
2019-05-20T13:26:57.817Z,22.80
2019-05-20T13:29:43.385Z,22.70
2019-05-20T13:32:27.577Z,22.70
2019-05-20T13:35:08.213Z,22.70
2019-05-20T13:37:43.913Z,22.60
2019-05-20T13:40:43.023Z,22.60
2019-05-20T13:43:04.206Z,22.60
2019-05-20T13:45:43.088Z,22.60
2019-05-20T13:48:23.409Z,22.70
2019-05-20T13:51:05.230Z,22.70
2019-05-20T13:53:41.971Z,22.80
2019-05-20T13:56:27.385Z,22.90
2019-05-20T13:59:09.316Z,23.00
2019-05-20T14:01:46.568Z,23.00
2019-05-20T14:04:24.361Z,23.00
2019-05-20T14:07:07.240Z,22.90
2019-05-20T14:10:02.228Z,22.80
2019-05-20T14:12:42.898Z,22.80
2019-05-20T14:15:28.191Z,22.80
2019-05-20T14:18:06.279Z,22.60
2019-05-20T14:20:54.265Z,22.40
2019-05-20T14:23:36.114Z,22.30
2019-05-20T14:26:27.101Z,22.40
2019-05-20T14:29:06.348Z,22.40
2019-05-20T14:31:53.441Z,22.30
2019-05-20T14:34:47.781Z,22.20
2019-05-20T14:37:25.961Z,22.20
2019-05-20T14:40:19.804Z,22.30
2019-05-20T14:43:06.019Z,22.30
2019-05-20T14:45:51.295Z,22.20
2019-05-20T14:48:35.614Z,22.30
2019-05-20T14:51:22.044Z,22.50
2019-05-20T14:54:13.021Z,22.30
2019-05-20T14:56:53.837Z,22.20
2019-05-20T14:59:33.303Z,22.40
2019-05-20T15:02:13.790Z,22.10
2019-05-20T15:04:52.162Z,21.90
2019-05-20T15:07:31.477Z,22.20
2019-05-20T15:10:14.322Z,22.40
2019-05-20T15:12:52.435Z,22.30
2019-05-20T15:15:39.656Z,22.20
2019-05-20T15:18:20.138Z,22.20
2019-05-20T15:21:05.659Z,22.10
2019-05-20T15:23:43.565Z,21.80
2019-05-20T15:26:25.308Z,21.90
2019-05-20T15:29:26.895Z,21.90
2019-05-20T15:31:55.066Z,21.90
2019-05-20T15:34:35.965Z,22.00
2019-05-20T15:37:15.440Z,21.90
2019-05-20T15:42:51.034Z,21.50
2019-05-20T15:45:28.856Z,21.50
2019-05-20T15:48:07.099Z,21.40
2019-05-20T15:50:48.806Z,21.50
2019-05-20T15:53:32.660Z,21.40
2019-05-20T15:56:08.611Z,21.30
2019-05-20T15:58:50.232Z,21.20
2019-05-20T16:01:27.569Z,21.20
2019-05-20T16:04:04.639Z,21.30
2019-05-20T16:06:44.042Z,21.20
2019-05-20T16:09:23.888Z,21.10
2019-05-20T16:12:04.825Z,21.00
2019-05-20T16:14:46.996Z,21.00
2019-05-20T16:17:27.079Z,20.90
2019-05-20T16:20:07.169Z,21.00
2019-05-20T16:22:44.955Z,20.90
2019-05-20T16:25:25.565Z,20.70
2019-05-20T16:30:59.395Z,20.20
2019-05-20T16:33:36.318Z,20.40
2019-05-20T16:36:15.088Z,20.40
2019-05-20T16:38:56.267Z,20.60
2019-05-20T16:44:29.915Z,20.50
2019-05-20T16:47:10.889Z,20.60
2019-05-20T16:49:52.956Z,20.50
2019-05-20T16:52:40.594Z,20.20
2019-05-20T16:55:16.139Z,20.30
2019-05-20T16:57:52.033Z,20.40
2019-05-20T17:00:31.952Z,20.40
2019-05-20T17:03:04.361Z,20.30
2019-05-20T17:05:44.306Z,20.10
2019-05-20T17:08:27.579Z,20.20
2019-05-20T17:11:03.275Z,20.20
2019-05-20T17:13:44.135Z,20.20
2019-05-20T17:16:22.108Z,20.20
2019-05-20T17:19:02.468Z,20.30
2019-05-20T17:21:41.844Z,20.00
2019-05-20T17:24:19.052Z,19.90
2019-05-20T17:26:54.832Z,20.10
2019-05-20T17:29:31.586Z,20.20
2019-05-20T17:32:07.028Z,20.10
2019-05-20T17:34:43.035Z,20.10
2019-05-20T17:37:20.042Z,20.10
2019-05-20T17:39:57.517Z,20.00
2019-05-20T17:42:34.989Z,20.10
2019-05-20T17:45:10.966Z,20.10
2019-05-20T17:47:48.059Z,19.90
2019-05-20T17:50:25.292Z,19.80
2019-05-20T17:53:05.268Z,19.80
2019-05-20T17:55:41.463Z,19.40
2019-05-20T17:58:18.753Z,19.60
2019-05-20T18:00:56.015Z,19.70
2019-05-20T18:03:33.438Z,19.80
2019-05-20T18:06:09.118Z,19.80
2019-05-20T18:08:47.459Z,19.80
2019-05-20T18:11:23.237Z,19.60
2019-05-20T18:16:56.884Z,19.50
2019-05-20T18:19:32.536Z,19.60
2019-05-20T18:22:09.895Z,19.60
2019-05-20T18:24:45.541Z,19.50
2019-05-20T18:27:23.577Z,19.30
2019-05-20T18:29:59.204Z,19.40
2019-05-20T18:32:38.492Z,19.40
2019-05-20T18:35:13.665Z,19.50
2019-05-20T18:37:49.417Z,19.50
2019-05-20T18:40:29.396Z,19.30
2019-05-20T18:43:06.715Z,19.20
2019-05-20T18:45:42.456Z,19.20
2019-05-20T18:48:18.320Z,19.30
2019-05-20T18:50:55.548Z,19.30
2019-05-20T18:53:32.994Z,19.20
2019-05-20T18:56:08.634Z,19.00
2019-05-20T18:58:44.945Z,19.10
2019-05-20T19:01:20.493Z,19.00
2019-05-20T19:03:57.912Z,19.10
2019-05-20T19:06:33.699Z,19.00
2019-05-20T19:09:10.407Z,19.00
2019-05-20T19:11:45.998Z,19.10
2019-05-20T19:14:23.818Z,18.90
2019-05-20T19:17:01.258Z,19.00
2019-05-20T19:19:37.026Z,19.00
2019-05-20T19:22:12.685Z,18.80
2019-05-20T19:24:52.220Z,18.90
2019-05-20T19:27:27.696Z,18.80
2019-05-20T19:30:03.974Z,18.70
2019-05-20T19:32:41.064Z,18.80
2019-05-20T19:35:18.507Z,18.60
2019-05-20T19:37:58.251Z,18.60
2019-05-20T19:40:35.357Z,18.60
2019-05-20T19:43:12.494Z,18.40
2019-05-20T19:45:50.069Z,18.30
2019-05-20T19:48:27.034Z,18.10
2019-05-20T19:51:01.198Z,18.10
2019-05-20T19:53:36.553Z,18.20
2019-05-20T19:56:16.317Z,18.20
2019-05-20T19:58:53.377Z,18.10
2019-05-20T20:01:29.751Z,18.10
2019-05-20T20:04:06.748Z,18.00
2019-05-20T20:06:42.363Z,18.10
2019-05-20T20:09:19.110Z,18.00
2019-05-20T20:11:59.089Z,18.10
2019-05-20T20:14:36.101Z,18.00
2019-05-20T20:17:10.659Z,17.90
2019-05-20T20:19:46.103Z,17.90
2019-05-20T20:22:23.446Z,17.90
2019-05-20T20:25:03.141Z,17.70
2019-05-20T20:27:40.698Z,17.80
2019-05-20T20:30:16.522Z,17.80
2019-05-20T20:32:54.330Z,17.80
2019-05-20T20:35:37.677Z,17.80
2019-05-20T20:38:10.904Z,17.90
2019-05-20T20:40:50.885Z,17.80
2019-05-20T20:43:26.659Z,17.60
2019-05-20T20:46:03.640Z,17.60
2019-05-20T20:48:37.553Z,17.60
2019-05-20T20:51:14.304Z,17.60
2019-05-20T20:53:53.923Z,17.60
2019-05-20T20:56:33.972Z,17.60
2019-05-20T20:59:09.210Z,17.40
2019-05-20T21:01:44.892Z,17.40
2019-05-20T21:04:20.677Z,17.40
2019-05-20T21:06:57.788Z,17.40
2019-05-20T21:09:33.920Z,17.40
2019-05-20T21:12:09.490Z,17.20
2019-05-20T21:14:45.278Z,17.40
2019-05-20T21:17:21.127Z,17.30
2019-05-20T21:19:56.784Z,17.40
2019-05-20T21:22:32.532Z,17.20
2019-05-20T21:25:08.762Z,17.20
2019-05-20T21:27:44.828Z,17.10
2019-05-20T21:30:21.767Z,17.20
2019-05-20T21:33:08.752Z,17.20
2019-05-20T21:35:35.733Z,17.20
2019-05-20T21:38:13.326Z,17.10
2019-05-20T21:40:49.134Z,17.10
2019-05-20T21:43:24.894Z,17.00
2019-05-20T21:46:00.598Z,17.10
2019-05-20T21:48:37.763Z,17.00
2019-05-20T21:51:13.610Z,17.00
2019-05-20T21:53:50.763Z,17.00
2019-05-20T21:56:26.451Z,17.00
2019-05-20T21:59:03.568Z,17.00
2019-05-20T22:01:39.990Z,16.90
2019-05-20T22:04:15.751Z,17.00
2019-05-20T22:06:51.480Z,17.00
2019-05-20T22:09:28.766Z,16.90
2019-05-20T22:12:06.103Z,17.00
2019-05-20T22:14:41.708Z,16.80
2019-05-20T22:17:17.631Z,16.90
2019-05-20T22:19:54.917Z,17.00
2019-05-20T22:22:32.946Z,17.10
2019-05-20T22:25:08.864Z,17.10
2019-05-20T22:27:44.520Z,17.10
2019-05-20T22:30:20.242Z,17.30
2019-05-20T22:32:56.394Z,17.30
2019-05-20T22:35:31.902Z,17.40
2019-05-20T22:38:07.961Z,17.30
2019-05-20T22:40:43.506Z,17.40
2019-05-20T22:43:20.728Z,17.50
2019-05-20T22:45:57.820Z,17.60
2019-05-20T22:48:33.682Z,17.60
2019-05-20T22:51:09.186Z,17.70
2019-05-20T22:53:44.918Z,17.80
2019-05-20T22:56:21.518Z,17.90
2019-05-20T22:58:57.231Z,17.90
2019-05-20T23:01:36.904Z,18.00
2019-05-20T23:04:14.745Z,18.20
2019-05-20T23:06:50.449Z,18.30
2019-05-20T23:09:26.211Z,18.40
2019-05-20T23:12:03.340Z,18.40
2019-05-20T23:14:39.273Z,18.60
2019-05-20T23:17:14.932Z,18.70
2019-05-20T23:19:50.784Z,18.80
2019-05-20T23:22:26.606Z,18.90
2019-05-20T23:25:02.416Z,19.10
2019-05-20T23:27:38.061Z,19.20
2019-05-20T23:30:15.403Z,19.30
2019-05-20T23:32:50.961Z,19.40
2019-05-20T23:35:28.614Z,19.50
2019-05-20T23:38:06.090Z,19.60
2019-05-20T23:40:41.758Z,19.70
2019-05-20T23:43:17.500Z,19.80
2019-05-20T23:45:53.357Z,19.90
2019-05-20T23:48:29.290Z,20.00
2019-05-20T23:51:05.091Z,20.10
2019-05-20T23:53:40.652Z,20.00
2019-05-20T23:56:16.906Z,20.10
2019-05-20T23:58:52.506Z,20.00
